Time;durP1;ratioP1;P1;durP2;ratioP2;P2;SDS_P1;SDS_P2;PMS_P1;PMS_P2;Temp;Humidity;BMP_temperature;BMP_pressure;BME280_temperature;BME280_humidity;BME280_pressure;Samples;Min_cycle;Max_cycle;Signal;HPM_P1;HPM_P2
2021/04/11 00:00:39;;;;;;;4.90;2.50;;;11.40;55.90;;;;;;5093851;28;20026;-74
2021/04/11 00:03:11;;;;;;;4.13;2.42;;;11.20;55.00;;;;;;5093942;28;20028;-74
2021/04/11 00:05:38;;;;;;;;;;;11.30;55.40;;;;;;5093817;28;20059;-74
2021/04/11 00:08:06;;;;;;;4.47;2.67;;;11.20;55.40;;;;;;5093974;28;19904;-73
2021/04/11 00:10:35;;;;;;;4.85;2.40;;;11.30;55.60;;;;;;5093587;28;20036;-73
2021/04/11 00:13:04;;;;;;;4.43;2.78;;;11.30;55.60;;;;;;5093546;28;20149;-73
2021/04/11 00:15:31;;;;;;;5.45;2.25;;;11.20;57.50;;;;;;5092313;28;20031;-73
2021/04/11 00:17:57;;;;;;;6.03;3.17;;;10.90;59.40;;;;;;5092139;28;20029;-73
2021/04/11 00:20:23;;;;;;;6.88;2.80;;;10.70;60.30;;;;;;5092237;28;20022;-73
2021/04/11 00:22:51;;;;;;;6.75;3.00;;;10.70;59.70;;;;;;5093459;28;20031;-73
2021/04/11 00:25:21;;;;;;;7.75;2.40;;;10.80;58.30;;;;;;5092042;28;20020;-73
2021/04/11 00:27:47;;;;;;;7.38;2.13;;;10.80;58.30;;;;;;5093161;28;20024;-73
2021/04/11 00:30:14;;;;;;;3.10;2.10;;;10.90;57.10;;;;;;5093219;28;20035;-73
2021/04/11 00:32:41;;;;;;;4.55;2.67;;;10.90;56.60;;;;;;5093194;28;20051;-73
2021/04/11 00:35:08;;;;;;;7.00;2.58;;;11.10;56.90;;;;;;5093369;28;20020;-73
2021/04/11 00:37:34;;;;;;;7.25;2.85;;;10.90;57.00;;;;;;5093130;28;20020;-74
2021/04/11 00:40:01;;;;;;;5.53;2.47;;;10.70;58.90;;;;;;5092753;28;20027;-74
2021/04/11 00:42:38;;;;;;;5.28;2.35;;;10.80;58.20;;;;;;5093097;28;20020;-74
2021/04/11 00:45:16;;;;;;;3.30;2.35;;;10.90;57.30;;;;;;5093041;28;20016;-73
2021/04/11 00:47:42;;;;;;;3.88;2.28;;;11.10;56.70;;;;;;5093084;28;20051;-74
2021/04/11 00:50:12;;;;;;;3.83;2.50;;;11.10;56.30;;;;;;5092732;28;20110;-73
2021/04/11 00:52:38;;;;;;;5.35;2.55;;;11.00;56.50;;;;;;5092896;28;20448;-73
2021/04/11 00:55:04;;;;;;;4.32;2.38;;;11.00;56.50;;;;;;5092852;28;20081;-73
2021/04/11 00:57:31;;;;;;;3.45;2.28;;;11.10;56.20;;;;;;5092874;28;20530;-73
2021/04/11 00:59:57;;;;;;;6.65;2.30;;;11.00;56.20;;;;;;5092640;28;20054;-73
2021/04/11 01:02:22;;;;;;;4.55;2.35;;;11.00;56.20;;;;;;5092799;28;20438;-73
2021/04/11 01:04:48;;;;;;;5.47;2.40;;;11.00;56.30;;;;;;5091505;28;20058;-74
2021/04/11 01:07:15;;;;;;;6.97;2.72;;;11.00;56.40;;;;;;5091669;28;20047;-73
2021/04/11 01:09:44;;;;;;;7.57;2.55;;;11.00;56.50;;;;;;5092382;28;20039;-73
2021/04/11 01:12:13;;;;;;;9.68;3.03;;;11.00;56.60;;;;;;5092549;28;20429;-73
2021/04/11 01:14:39;;;;;;;4.63;3.05;;;10.90;56.80;;;;;;5092553;28;20020;-73
2021/04/11 01:17:19;;;;;;;4.70;2.60;;;11.00;56.90;;;;;;5091977;28;20028;-73
2021/04/11 01:19:45;;;;;;;5.22;2.25;;;11.10;56.80;;;;;;5092301;28;20060;-73
2021/04/11 01:22:40;;;;;;;3.95;2.30;;;11.00;56.60;;;;;;5091224;28;20028;-73
2021/04/11 01:25:16;;;;;;;4.63;2.20;;;11.00;56.80;;;;;;5092762;28;20016;-73
2021/04/11 01:27:41;;;;;;;15.10;3.10;;;11.00;56.50;;;;;;5092227;28;20024;-73
2021/04/11 01:30:13;;;;;;;5.82;2.97;;;10.80;56.80;;;;;;5092177;28;20063;-73
2021/04/11 01:32:42;;;;;;;3.45;2.28;;;10.80;57.20;;;;;;5092273;28;20024;-73
2021/04/11 01:35:10;;;;;;;8.07;4.25;;;10.90;57.50;;;;;;5092218;28;20032;-73
2021/04/11 01:37:36;;;;;;;9.23;3.03;;;11.00;57.80;;;;;;5092161;28;20463;-73
2021/04/11 01:40:04;;;;;;;4.93;2.58;;;11.00;57.80;;;;;;5091737;28;20387;-74
2021/04/11 01:42:30;;;;;;;5.57;2.50;;;11.10;58.10;;;;;;5092219;28;20052;-73
2021/04/11 01:44:56;;;;;;;6.80;2.45;;;11.00;58.50;;;;;;5092125;28;20108;-73
2021/04/11 01:47:22;;;;;;;5.43;2.80;;;11.00;58.10;;;;;;5092085;28;20032;-73
2021/04/11 01:49:48;;;;;;;5.65;2.60;;;11.00;58.10;;;;;;5091979;28;20024;-73
2021/04/11 01:52:27;;;;;;;4.30;2.63;;;11.00;57.70;;;;;;5090568;28;20391;-73
2021/04/11 01:54:54;;;;;;;4.50;2.30;;;11.00;57.70;;;;;;5092077;28;20047;-73
2021/04/11 01:57:31;;;;;;;3.95;2.58;;;11.00;57.70;;;;;;5092139;28;20021;-73
2021/04/11 02:00:06;;;;;;;8.30;2.83;;;11.00;57.50;;;;;;5091923;28;20481;-73
2021/04/11 02:02:32;;;;;;;5.90;2.42;;;10.90;58.00;;;;;;5090695;28;20066;-73
2021/04/11 02:04:58;;;;;;;4.28;2.83;;;10.90;57.50;;;;;;5091859;28;20024;-73
2021/04/11 02:07:24;;;;;;;5.88;2.83;;;10.90;57.50;;;;;;5091947;28;20024;-73
2021/04/11 02:09:50;;;;;;;3.60;2.25;;;10.70;57.30;;;;;;5091705;28;20028;-73
2021/04/11 02:12:17;;;;;;;7.93;2.72;;;10.80;57.30;;;;;;5091911;28;20066;-73
2021/04/11 02:14:44;;;;;;;7.65;2.78;;;10.80;57.20;;;;;;5091844;28;20048;-73
2021/04/11 02:17:15;;;;;;;4.13;2.70;;;10.80;57.40;;;;;;5091710;28;20028;-73
2021/04/11 02:19:41;;;;;;;6.78;2.90;;;10.90;57.50;;;;;;5091704;28;20541;-73
2021/04/11 02:22:15;;;;;;;5.90;2.70;;;10.90;57.10;;;;;;5090439;28;20036;-74
2021/04/11 02:24:42;;;;;;;4.30;2.42;;;10.80;57.30;;;;;;5091755;28;20065;-73
2021/04/11 02:27:09;;;;;;;4.18;2.90;;;10.80;57.50;;;;;;5091360;28;20032;-73
2021/04/11 02:29:35;;;;;;;6.40;2.88;;;10.80;57.80;;;;;;5095562;28;20475;-73
2021/04/11 02:32:03;;;;;;;3.35;2.80;;;10.90;57.70;;;;;;5095482;28;20040;-73
2021/04/11 02:34:32;;;;;;;3.22;2.40;;;10.90;57.50;;;;;;5077419;28;20043;-73
2021/04/11 02:37:01;;;;;;;6.38;2.53;;;10.90;57.30;;;;;;5094216;28;20411;-73
2021/04/11 02:39:31;;;;;;;4.60;2.40;;;10.90;57.50;;;;;;5095392;28;20043;-73
2021/04/11 02:42:00;;;;;;;5.60;2.50;;;11.00;57.70;;;;;;5093976;28;20027;-73
2021/04/11 02:44:27;;;;;;;5.00;2.67;;;11.20;57.20;;;;;;5095341;28;20103;-74
2021/04/11 02:46:52;;;;;;;6.35;2.75;;;11.20;57.10;;;;;;5095366;28;20035;-73
2021/04/11 02:49:21;;;;;;;3.72;2.35;;;11.00;59.30;;;;;;5095195;28;20099;-73
2021/04/11 02:51:48;;;;;;;4.63;2.30;;;10.80;60.60;;;;;;5093821;28;20111;-73
2021/04/11 02:54:17;;;;;;;2.78;2.30;;;10.70;61.60;;;;;;5095222;28;20013;-73
2021/04/11 02:56:44;;;;;;;2.92;2.20;;;10.50;63.00;;;;;;5093914;28;20079;-73
2021/04/11 02:59:13;;;;;;;2.33;2.00;;;10.30;64.00;;;;;;5093666;28;20059;-73
2021/04/11 03:01:43;;;;;;;6.00;2.67;;;10.10;65.10;;;;;;5094998;28;20020;-73
2021/04/11 03:04:17;;;;;;;5.72;2.42;;;10.00;65.70;;;;;;5095037;28;20399;-74
2021/04/11 03:06:47;;;;;;;4.35;2.63;;;10.10;66.10;;;;;;5094871;28;20070;-73
2021/04/11 03:09:20;;;;;;;4.60;2.58;;;10.30;66.20;;;;;;5095133;28;20032;-73
2021/04/11 03:11:51;;;;;;;10.35;3.75;;;10.60;65.60;;;;;;5094899;28;20089;-75
2021/04/11 03:14:20;;;;;;;10.88;3.53;;;10.70;64.90;;;;;;5094918;28;20475;-74
2021/04/11 03:16:45;;;;;;;6.63;2.33;;;10.70;62.90;;;;;;5076487;28;20119;-73
2021/04/11 03:19:17;;;;;;;5.13;2.70;;;10.70;61.70;;;;;;5094571;28;20486;-73
2021/04/11 03:21:43;;;;;;;4.30;2.42;;;10.70;62.80;;;;;;5093558;28;20096;-73
2021/04/11 03:24:10;;;;;;;5.93;2.55;;;10.60;61.10;;;;;;5094565;28;20498;-74
2021/04/11 03:26:54;;;;;;;3.47;2.53;;;10.60;61.40;;;;;;5094695;28;20023;-73
2021/04/11 03:29:46;;;;;;;3.30;2.47;;;10.60;61.40;;;;;;5093236;28;20028;-73
2021/04/11 03:32:15;;;;;;;5.88;2.88;;;10.70;60.30;;;;;;5093230;28;20432;-73
2021/04/11 03:34:43;;;;;;;5.07;2.10;;;10.70;60.60;;;;;;5094451;28;20056;-73
2021/04/11 03:37:11;;;;;;;11.00;3.00;;;10.70;60.50;;;;;;5093128;28;20043;-74
2021/04/11 03:39:37;;;;;;;4.03;2.30;;;10.60;61.70;;;;;;5092064;28;20095;-73
2021/04/11 03:42:05;;;;;;;7.65;2.35;;;10.60;62.10;;;;;;5092773;28;20028;-72
2021/04/11 03:44:31;;;;;;;3.00;2.13;;;10.70;62.90;;;;;;5093015;28;20035;-73
2021/04/11 03:47:10;;;;;;;6.90;2.42;;;10.70;61.00;;;;;;5093002;28;20603;-73
2021/04/11 03:49:50;;;;;;;5.88;3.13;;;10.60;61.40;;;;;;5094015;28;20028;-72
2021/04/11 03:52:27;;;;;;;3.70;2.40;;;10.60;61.30;;;;;;5093969;28;20028;-73
2021/04/11 03:54:54;;;;;;;3.60;2.70;;;10.60;61.20;;;;;;5094115;28;20028;-75
2021/04/11 03:57:37;;;;;;;5.63;2.17;;;10.50;61.20;;;;;;5092675;28;20024;-73
2021/04/11 04:00:05;;;;;;;4.68;2.45;;;10.40;61.40;;;;;;5092545;28;20027;-72
2021/04/11 04:02:35;;;;;;;3.45;2.40;;;10.30;61.60;;;;;;5092496;28;20035;-73
2021/04/11 04:05:05;;;;;;;4.03;3.05;;;10.40;62.10;;;;;;5093737;28;20074;-72
2021/04/11 04:07:46;;;;;;;12.93;3.90;;;10.30;62.00;;;;;;5093829;28;20399;-72
2021/04/11 04:10:14;;;;;;;5.70;2.35;;;10.30;62.30;;;;;;5093651;28;20020;-72
2021/04/11 04:12:39;;;;;;;4.45;2.53;;;10.30;61.90;;;;;;5093707;28;20024;-73
2021/04/11 04:15:43;;;;;;;7.32;2.05;;;10.30;61.80;;;;;;5092360;28;20364;-72
2021/04/11 04:18:46;;;;;;;2.88;2.15;;;10.30;61.90;;;;;;5092162;28;20066;-74
2021/04/11 04:21:33;;;;;;;7.57;2.67;;;10.50;61.80;;;;;;5092223;28;20395;-75
2021/04/11 04:24:34;;;;;;;10.90;3.17;;;10.40;64.00;;;;;;5093750;28;20019;-75
2021/04/11 04:27:14;;;;;;;9.65;2.50;;;10.30;63.50;;;;;;5093439;28;20549;-74
2021/04/11 04:29:58;;;;;;;6.47;2.28;;;10.30;62.10;;;;;;5075110;28;20024;-75
2021/04/11 04:32:34;;;;;;;3.47;2.40;;;10.40;62.10;;;;;;5093229;28;20093;-75
2021/04/11 04:35:15;;;;;;;8.00;2.95;;;10.30;61.60;;;;;;5093194;28;20109;-75
2021/04/11 04:37:54;;;;;;;6.20;2.42;;;10.20;65.50;;;;;;5092034;28;20391;-75
2021/04/11 04:40:46;;;;;;;2.78;2.22;;;10.10;68.60;;;;;;5092755;28;20027;-75
2021/04/11 04:43:57;;;;;;;3.20;2.40;;;10.00;70.10;;;;;;5093825;28;20028;-75
2021/04/11 04:46:52;;;;;;;3.57;2.67;;;9.70;71.90;;;;;;5074311;28;20420;-75
2021/04/11 04:49:46;;;;;;;6.35;3.08;;;9.40;73.80;;;;;;5092826;28;20278;-75
2021/04/11 04:52:17;;;;;;;4.13;1.92;;;9.40;73.90;;;;;;5092696;28;20031;-75
2021/04/11 04:55:16;;;;;;;5.05;2.17;;;9.40;72.60;;;;;;5092936;28;20103;-75
2021/04/11 04:57:53;;;;;;;2.53;2.05;;;9.60;71.60;;;;;;5074546;28;20020;-75
2021/04/11 05:00:24;;;;;;;5.97;2.42;;;9.70;71.20;;;;;;5093182;28;20035;-76
2021/04/11 05:03:08;;;;;;;4.50;2.63;;;9.70;71.10;;;;;;5093144;28;20103;-75
2021/04/11 05:05:42;;;;;;;10.68;2.65;;;9.80;70.20;;;;;;5091485;28;20035;-75
2021/04/11 05:08:16;;;;;;;2.50;2.20;;;9.90;69.30;;;;;;5092606;28;20024;-75
2021/04/11 05:10:44;;;;;;;2.40;2.03;;;10.00;68.30;;;;;;5093051;28;20426;-75
2021/04/11 05:13:22;;;;;;;3.95;2.80;;;10.00;68.80;;;;;;5092394;28;20031;-75
2021/04/11 05:15:58;;;;;;;5.35;2.15;;;10.00;69.40;;;;;;5091313;28;20434;-75
2021/04/11 05:18:30;;;;;;;4.88;2.53;;;9.90;70.70;;;;;;5092153;28;20161;-75
2021/04/11 05:21:00;;;;;;;7.30;3.08;;;9.80;71.10;;;;;;5092490;28;20100;-75
2021/04/11 05:23:38;;;;;;;3.08;2.30;;;9.70;71.90;;;;;;5092347;28;20105;-75
2021/04/11 05:26:16;;;;;;;5.53;2.60;;;9.70;72.30;;;;;;5092356;28;20056;-74
2021/04/11 05:29:00;;;;;;;4.60;2.55;;;9.70;72.70;;;;;;5090935;28;20028;-74
2021/04/11 05:31:38;;;;;;;5.25;2.60;;;9.60;72.70;;;;;;5092199;28;20491;-75
2021/04/11 05:34:07;;;;;;;5.57;2.97;;;9.60;73.60;;;;;;5092154;28;20097;-74
2021/04/11 05:36:38;;;;;;;3.90;2.60;;;9.60;73.80;;;;;;5092250;28;20027;-74
2021/04/11 05:39:22;;;;;;;6.22;2.83;;;9.60;74.00;;;;;;5092072;28;20361;-75
2021/04/11 05:41:58;;;;;;;5.15;2.83;;;9.60;75.00;;;;;;5091968;28;20084;-76
2021/04/11 05:44:40;;;;;;;17.23;2.45;;;9.60;75.40;;;;;;5092130;28;20136;-75
2021/04/11 05:47:21;;;;;;;;;;;9.60;76.00;;;;;;5092488;28;20032;-74
2021/04/11 05:50:04;;;;;;;4.85;2.80;;;9.80;73.40;;;;;;5091977;28;19904;-75
2021/04/11 05:52:45;;;;;;;4.60;2.60;;;9.90;72.50;;;;;;5090683;28;20498;-74
2021/04/11 05:55:13;;;;;;;4.63;2.35;;;10.00;72.00;;;;;;5090821;28;20052;-74
2021/04/11 05:57:46;;;;;;;3.42;2.53;;;10.20;70.80;;;;;;5092113;28;20051;-74
2021/04/11 06:00:21;;;;;;;3.83;2.78;;;10.20;70.20;;;;;;5091788;28;20081;-74
2021/04/11 06:02:50;;;;;;;3.17;2.35;;;10.40;68.90;;;;;;5094022;28;20097;-75
2021/04/11 06:05:18;;;;;;;7.93;2.72;;;10.60;68.50;;;;;;5096166;28;20506;-75
2021/04/11 06:07:54;;;;;;;2.85;2.35;;;10.70;69.00;;;;;;5096160;28;20047;-74
2021/04/11 06:10:28;;;;;;;6.80;2.80;;;10.80;69.50;;;;;;5096083;28;20594;-75
2021/04/11 06:13:20;;;;;;;6.40;2.00;;;11.00;68.70;;;;;;5096062;28;20032;-72
2021/04/11 06:15:58;;;;;;;5.00;3.00;;;11.30;67.90;;;;;;5096249;28;20041;-73
2021/04/11 06:18:24;;;;;;;4.28;2.58;;;11.60;67.10;;;;;;5095623;28;20073;-72
2021/04/11 06:20:53;;;;;;;4.38;2.55;;;11.90;66.10;;;;;;5096018;28;20024;-73
2021/04/11 06:23:49;;;;;;;6.55;2.63;;;12.00;65.20;;;;;;5095815;28;20020;-73
2021/04/11 06:26:27;;;;;;;7.80;2.75;;;12.00;64.70;;;;;;5090567;28;20039;-72
2021/04/11 06:29:10;;;;;;;5.35;2.90;;;12.10;65.00;;;;;;5095558;28;20039;-73
2021/04/11 06:31:48;;;;;;;7.38;2.67;;;12.20;63.70;;;;;;5095574;28;20024;-72
2021/04/11 06:34:39;;;;;;;6.97;2.67;;;12.30;62.40;;;;;;5094134;28;20027;-74
2021/04/11 06:37:08;;;;;;;3.63;2.30;;;12.40;62.00;;;;;;5095118;28;20055;-72
2021/04/11 06:39:38;;;;;;;4.90;2.45;;;12.50;60.70;;;;;;5095265;28;20020;-73
2021/04/11 06:42:25;;;;;;;5.53;1.92;;;12.60;59.50;;;;;;5095361;28;20020;-74
2021/04/11 06:45:09;;;;;;;4.90;2.03;;;12.70;59.40;;;;;;5095403;28;20028;-73
2021/04/11 06:48:09;;;;;;;4.82;2.15;;;12.90;58.50;;;;;;5095292;28;20418;-73
2021/04/11 06:51:00;;;;;;;2.90;1.77;;;13.10;58.10;;;;;;5095128;28;20031;-73
2021/04/11 06:53:41;;;;;;;3.70;1.92;;;13.20;57.50;;;;;;5093929;28;20051;-74
2021/04/11 06:56:20;;;;;;;2.05;1.55;;;13.40;57.10;;;;;;5095292;28;20023;-73
2021/04/11 06:59:18;;;;;;;2.90;1.30;;;13.40;58.00;;;;;;5093634;28;20376;-73
2021/04/11 07:02:02;;;;;;;1.20;1.08;;;13.50;57.40;;;;;;5083009;28;20372;-73
2021/04/11 07:04:56;;;;;;;8.45;1.73;;;13.50;56.70;;;;;;5095051;28;20024;-73
2021/04/11 07:08:00;;;;;;;2.38;1.10;;;13.70;56.10;;;;;;5084355;28;20100;-73
2021/04/11 07:10:52;;;;;;;1.42;1.23;;;13.60;55.00;;;;;;5082482;28;20379;-73
2021/04/11 07:13:23;;;;;;;2.70;1.17;;;13.60;55.50;;;;;;5085080;28;20020;-73
2021/04/11 07:16:16;;;;;;;6.57;1.48;;;13.50;55.50;;;;;;5080760;28;20024;-73
2021/04/11 07:19:09;;;;;;;3.33;1.27;;;13.60;55.10;;;;;;5114633;28;20030;-74
2021/04/11 07:22:13;;;;;;;1.88;1.00;;;13.70;55.10;;;;;;5093106;28;20102;-74
2021/04/11 07:25:00;;;;;;;5.68;1.10;;;13.80;54.60;;;;;;5073125;28;20021;-73
2021/04/11 07:28:08;;;;;;;3.20;1.35;;;13.90;53.90;;;;;;5074825;28;20471;-73
2021/04/11 07:30:56;;;;;;;1.13;0.98;;;14.10;53.50;;;;;;5073926;28;20024;-73
2021/04/11 07:34:08;;;;;;;4.43;0.95;;;14.20;53.60;;;;;;5070546;28;20395;-73
2021/04/11 07:37:02;;;;;;;1.67;0.88;;;14.30;52.50;;;;;;5111153;22;20052;-75
2021/04/11 07:39:50;;;;;;;3.78;1.00;;;14.40;53.20;;;;;;5114722;27;20024;-75
2021/04/11 07:42:53;;;;;;;3.28;1.40;;;14.60;53.10;;;;;;5097733;28;20024;-75
2021/04/11 07:45:45;;;;;;;1.75;1.20;;;14.70;54.10;;;;;;5094208;28;20368;-75
2021/04/11 07:48:30;;;;;;;2.10;1.00;;;14.90;53.90;;;;;;5094303;28;20330;-75
2021/04/11 07:51:12;;;;;;;2.50;1.20;;;14.90;54.10;;;;;;5094637;28;20028;-75
2021/04/11 07:54:11;;;;;;;2.72;1.10;;;14.80;54.20;;;;;;5092678;28;20024;-74
2021/04/11 07:57:03;;;;;;;2.03;1.10;;;14.90;54.50;;;;;;5094111;28;20062;-75
2021/04/11 07:59:28;;;;;;;1.58;1.30;;;15.00;55.70;;;;;;5075729;28;20043;-75
2021/04/11 08:02:16;;;;;;;1.50;0.98;;;15.20;54.40;;;;;;5092551;28;20115;-75
2021/04/11 08:05:06;;;;;;;3.92;1.00;;;15.30;53.60;;;;;;5093983;28;20028;-75
2021/04/11 08:07:54;;;;;;;1.20;1.00;;;15.50;53.40;;;;;;5093833;28;20048;-75
2021/04/11 08:10:31;;;;;;;4.13;1.55;;;15.70;53.40;;;;;;5092267;28;20510;-75
2021/04/11 08:13:09;;;;;;;3.08;1.00;;;15.70;53.60;;;;;;5093700;28;20020;-75
2021/04/11 08:15:57;;;;;;;4.43;1.10;;;16.00;54.50;;;;;;5101367;28;20016;-75
2021/04/11 08:18:59;;;;;;;2.85;1.05;;;16.10;53.70;;;;;;5093374;28;20027;-75
2021/04/11 08:21:46;;;;;;;2.38;1.30;;;16.20;53.20;;;;;;5092225;28;20479;-75
2021/04/11 08:24:35;;;;;;;3.88;1.10;;;16.50;53.30;;;;;;5075296;28;20024;-76
2021/04/11 08:27:33;;;;;;;4.45;1.40;;;16.50;53.10;;;;;;5093462;28;20016;-75
2021/04/11 08:30:20;;;;;;;1.92;1.15;;;16.50;51.90;;;;;;5093246;28;20353;-75
2021/04/11 08:33:10;;;;;;;1.88;1.13;;;16.90;51.60;;;;;;5093261;28;20024;-75
2021/04/11 08:36:04;;;;;;;2.10;1.08;;;16.70;52.10;;;;;;5092281;28;20051;-75
2021/04/11 08:38:32;;;;;;;8.25;1.33;;;16.60;51.90;;;;;;5091799;28;20034;-75
2021/04/11 08:41:21;;;;;;;1.98;1.10;;;16.60;52.40;;;;;;5095704;28;20420;-75
2021/04/11 08:44:05;;;;;;;4.88;1.20;;;16.70;51.70;;;;;;5113393;28;20043;-75
2021/04/11 08:47:10;;;;;;;4.75;1.15;;;17.10;50.80;;;;;;5095058;28;20034;-75
2021/04/11 08:50:05;;;;;;;2.90;1.10;;;17.50;49.00;;;;;;5070744;28;20046;-75
2021/04/11 08:53:07;;;;;;;2.80;1.17;;;17.90;48.50;;;;;;5112056;28;20019;-75
2021/04/11 08:55:49;;;;;;;3.05;1.40;;;18.10;48.60;;;;;;5113245;27;20020;-75
2021/04/11 08:58:18;;;;;;;4.22;0.88;;;18.50;47.10;;;;;;5112995;28;20030;-75
2021/04/11 09:01:21;;;;;;;2.92;1.00;;;18.70;46.10;;;;;;5113005;28;20059;-75
2021/04/11 09:04:08;;;;;;;1.85;1.25;;;18.70;47.00;;;;;;5112950;28;20031;-75
2021/04/11 09:07:03;;;;;;;3.05;1.10;;;18.60;45.60;;;;;;5094614;28;20035;-75
2021/04/11 09:09:29;;;;;;;2.10;1.17;;;18.70;45.70;;;;;;5111625;28;20031;-75
2021/04/11 09:12:08;;;;;;;2.75;1.00;;;19.00;45.00;;;;;;5112865;28;20028;-75
2021/04/11 09:14:52;;;;;;;5.13;1.13;;;19.00;45.40;;;;;;5102210;28;20020;-75
2021/04/11 09:17:45;;;;;;;0.82;0.68;;;19.20;43.30;;;;;;5112886;28;20019;-75
2021/04/11 09:20:32;;;;;;;3.15;1.13;;;19.40;42.30;;;;;;5112926;27;20048;-75
2021/04/11 09:23:16;;;;;;;4.25;0.93;;;19.70;41.20;;;;;;5112692;28;20024;-75
2021/04/11 09:25:53;;;;;;;0.73;0.60;;;20.20;41.20;;;;;;5112771;28;20095;-76
2021/04/11 09:28:35;;;;;;;2.88;0.98;;;20.50;40.30;;;;;;5112561;28;20023;-76
2021/04/11 09:31:16;;;;;;;2.05;1.10;;;20.80;38.90;;;;;;5111576;28;20440;-75
2021/04/11 09:34:13;;;;;;;1.20;0.80;;;20.70;39.70;;;;;;5112485;28;20092;-76
2021/04/11 09:36:54;;;;;;;5.40;1.35;;;21.10;39.50;;;;;;5110410;28;20040;-75
2021/04/11 09:39:51;;;;;;;3.40;1.00;;;21.50;39.80;;;;;;5112513;28;20381;-75
2021/04/11 09:42:54;;;;;;;1.40;0.90;;;21.90;38.70;;;;;;5111213;28;20034;-74
2021/04/11 09:45:35;;;;;;;2.75;1.13;;;21.20;38.30;;;;;;5112449;28;20027;-75
2021/04/11 09:48:17;;;;;;;1.38;0.93;;;21.60;38.80;;;;;;5112462;28;20482;-74
2021/04/11 09:51:21;;;;;;;;;;;22.20;38.10;;;;;;5094704;28;20024;-75
2021/04/11 09:54:40;;;;;;;3.05;0.90;;;22.60;37.50;;;;;;5012853;28;19967;-75
2021/04/11 09:57:39;;;;;;;3.17;0.82;;;23.00;35.60;;;;;;4990048;28;20058;-75
2021/04/11 10:00:23;;;;;;;1.63;0.70;;;22.80;35.70;;;;;;5111010;28;20517;-75
2021/04/11 10:03:07;;;;;;;1.25;0.57;;;22.70;35.40;;;;;;5110806;28;20555;-75
2021/04/11 10:06:07;;;;;;;2.97;1.05;;;22.60;35.80;;;;;;5112096;28;20085;-75
2021/04/11 10:08:44;;;;;;;1.15;0.65;;;22.80;36.20;;;;;;5112187;28;20027;-75
2021/04/11 10:11:34;;;;;;;11.45;3.35;;;23.20;35.50;;;;;;5110901;28;20028;-75
2021/04/11 10:14:10;;;;;;;2.15;0.90;;;23.30;35.40;;;;;;5112235;28;20032;-75
2021/04/11 10:17:01;;;;;;;2.17;0.68;;;22.70;35.30;;;;;;5094967;28;20459;-75
2021/04/11 10:19:39;;;;;;;0.68;0.68;;;22.40;35.70;;;;;;5091760;28;20065;-75
2021/04/11 10:22:39;;;;;;;2.30;0.77;;;22.40;36.40;;;;;;5091853;28;20058;-75
2021/04/11 10:25:20;;;;;;;4.57;0.60;;;21.80;36.50;;;;;;5090452;28;20507;-75
2021/04/11 10:28:14;;;;;;;2.60;0.85;;;21.40;37.80;;;;;;5090252;28;20093;-75
2021/04/11 10:30:43;;;;;;;1.55;0.77;;;21.50;39.00;;;;;;5090567;28;20031;-75
2021/04/11 10:33:25;;;;;;;1.45;0.70;;;21.60;38.30;;;;;;5091722;28;20020;-75
2021/04/11 10:35:51;;;;;;;;;;;21.40;37.70;;;;;;5090647;28;20034;-75
2021/04/11 10:38:28;;;;;;;2.95;0.77;;;21.20;38.40;;;;;;5090102;28;19904;-75
2021/04/11 10:41:31;;;;;;;1.95;0.70;;;21.10;38.40;;;;;;5091627;28;20020;-75
2021/04/11 10:44:35;;;;;;;3.75;0.77;;;20.80;38.60;;;;;;5091514;28;20021;-75
2021/04/11 10:47:16;;;;;;;2.05;0.70;;;20.60;39.50;;;;;;5091497;28;20059;-75
2021/04/11 10:49:58;;;;;;;2.72;0.73;;;20.60;39.60;;;;;;5093295;28;20107;-75
2021/04/11 10:52:39;;;;;;;2.50;0.63;;;20.60;40.40;;;;;;5095000;28;20082;-75
2021/04/11 10:55:42;;;;;;;1.70;0.80;;;20.60;39.70;;;;;;5094867;28;20036;-74
2021/04/11 10:58:45;;;;;;;3.55;0.80;;;20.70;39.90;;;;;;5093624;28;20039;-75
2021/04/11 11:01:29;;;;;;;1.48;0.60;;;20.70;39.10;;;;;;5095462;28;20095;-75
2021/04/11 11:04:41;;;;;;;8.77;1.35;;;20.80;39.50;;;;;;5079585;28;20532;-75
2021/04/11 11:07:21;;;;;;;4.15;1.38;;;21.10;39.50;;;;;;5099965;27;20098;-75
2021/04/11 11:10:07;;;;;;;1.25;0.70;;;21.30;38.80;;;;;;5094640;27;20024;-74
2021/04/11 11:12:55;;;;;;;2.33;0.90;;;21.20;39.10;;;;;;5074063;28;20020;-75
2021/04/11 11:15:36;;;;;;;3.42;1.10;;;21.10;39.50;;;;;;5105479;27;21004;-74
2021/04/11 11:18:20;;;;;;;2.72;0.70;;;21.20;39.40;;;;;;5110224;27;20023;-75
2021/04/11 11:21:08;;;;;;;0.68;0.68;;;21.20;39.00;;;;;;5115011;28;20107;-75
2021/04/11 11:24:04;;;;;;;1.02;0.60;;;21.20;39.70;;;;;;5114906;28;20398;-75
2021/04/11 11:26:58;;;;;;;1.80;0.70;;;21.20;38.90;;;;;;5113697;28;20119;-75
2021/04/11 11:29:47;;;;;;;1.35;0.70;;;20.50;39.70;;;;;;5086565;28;20051;-75
2021/04/11 11:32:28;;;;;;;5.20;1.35;;;20.50;40.40;;;;;;5094956;28;20395;-75
2021/04/11 11:35:07;;;;;;;0.60;0.60;;;20.50;40.30;;;;;;5093194;28;20031;-74
2021/04/11 11:37:51;;;;;;;2.00;0.80;;;20.50;41.00;;;;;;5094404;28;20028;-75
2021/04/11 11:40:38;;;;;;;13.05;0.98;;;20.40;43.30;;;;;;5093149;28;20032;-75
2021/04/11 11:43:24;;;;;;;4.05;0.82;;;20.50;43.40;;;;;;5093994;28;20020;-75
2021/04/11 11:46:10;;;;;;;2.50;0.70;;;20.40;42.50;;;;;;5093188;28;20036;-75
2021/04/11 11:48:55;;;;;;;1.73;0.52;;;20.30;41.10;;;;;;5085186;28;20020;-75
2021/04/11 11:51:48;;;;;;;2.15;0.40;;;20.30;41.20;;;;;;5114775;28;20107;-77
2021/04/11 11:54:35;;;;;;;5.45;1.00;;;20.10;41.00;;;;;;5114390;28;20498;-75
2021/04/11 11:57:13;;;;;;;1.30;1.20;;;20.10;40.90;;;;;;5114382;28;20024;-75
2021/04/11 11:59:41;;;;;;;1.02;0.70;;;20.00;39.90;;;;;;5113395;28;20091;-75
2021/04/11 12:02:22;;;;;;;1.90;0.47;;;20.10;40.10;;;;;;5113178;28;20054;-75
2021/04/11 12:05:06;;;;;;;1.20;0.50;;;19.90;40.20;;;;;;5114347;28;20481;-75
2021/04/11 12:07:57;;;;;;;1.45;0.68;;;19.80;39.90;;;;;;5113234;28;20122;-75
2021/04/11 12:10:37;;;;;;;1.88;0.45;;;19.80;40.90;;;;;;5112774;28;20038;-75
2021/04/11 12:13:49;;;;;;;4.30;0.90;;;19.60;41.40;;;;;;5112940;28;20103;-75
2021/04/11 12:16:23;;;;;;;2.58;0.70;;;19.50;42.20;;;;;;5101264;28;20462;-75
2021/04/11 12:19:01;;;;;;;3.95;0.77;;;19.40;42.60;;;;;;5114068;28;20032;-75
2021/04/11 12:21:40;;;;;;;2.65;0.68;;;19.10;42.80;;;;;;5114004;28;20018;-75
2021/04/11 12:24:24;;;;;;;1.98;0.60;;;19.00;43.00;;;;;;5113792;28;20069;-75
2021/04/11 12:26:52;;;;;;;4.13;0.98;;;19.20;42.80;;;;;;5112469;28;20023;-75
2021/04/11 12:29:22;;;;;;;2.22;0.60;;;19.30;42.80;;;;;;5112371;28;20023;-75
2021/04/11 12:32:03;;;;;;;2.75;0.63;;;19.30;43.50;;;;;;5112320;28;20471;-75
2021/04/11 12:34:41;;;;;;;2.05;0.70;;;19.40;43.30;;;;;;5112466;28;20051;-75
2021/04/11 12:37:18;;;;;;;3.47;1.00;;;19.50;42.50;;;;;;5113464;28;20032;-74
2021/04/11 12:39:45;;;;;;;0.98;0.80;;;19.80;41.90;;;;;;5112342;28;20053;-75
2021/04/11 12:42:25;;;;;;;1.52;0.63;;;20.00;42.10;;;;;;5113216;28;20541;-75
2021/04/11 12:45:17;;;;;;;0.93;0.50;;;20.00;42.10;;;;;;5113591;28;20023;-75
2021/04/11 12:48:04;;;;;;;4.45;0.77;;;20.00;41.30;;;;;;5095094;28;20020;-75
2021/04/11 12:50:47;;;;;;;1.58;0.70;;;19.80;42.20;;;;;;5094955;28;20028;-75
2021/04/11 12:53:35;;;;;;;3.05;1.95;;;19.70;41.20;;;;;;5113287;28;20019;-75
2021/04/11 12:56:09;;;;;;;6.47;1.35;;;19.50;39.40;;;;;;5112043;28;20030;-75
2021/04/11 12:58:39;;;;;;;3.45;0.90;;;19.70;40.60;;;;;;5112211;28;20027;-74
2021/04/11 13:01:12;;;;;;;1.02;0.60;;;19.70;40.90;;;;;;5111281;28;20467;-75
2021/04/11 13:03:44;;;;;;;1.70;0.40;;;19.60;42.20;;;;;;5100430;28;20031;-75
2021/04/11 13:06:41;;;;;;;1.65;0.32;;;19.50;41.50;;;;;;5110732;28;20427;-75
2021/04/11 13:09:09;;;;;;;0.55;0.30;;;19.70;41.40;;;;;;5093406;28;20069;-75
2021/04/11 13:11:43;;;;;;;0.98;0.60;;;19.80;40.70;;;;;;5094648;28;20039;-75
2021/04/11 13:14:24;;;;;;;1.88;0.55;;;19.90;41.30;;;;;;5111565;28;20027;-75
2021/04/11 13:17:00;;;;;;;0.50;0.50;;;19.70;39.40;;;;;;5094888;28;20535;-75
2021/04/11 13:19:31;;;;;;;4.50;0.60;;;19.50;39.50;;;;;;5096428;28;20028;-75
2021/04/11 13:22:24;;;;;;;0.47;0.47;;;19.60;39.70;;;;;;5091287;28;20027;-75
2021/04/11 13:25:03;;;;;;;2.45;0.65;;;19.40;38.70;;;;;;5090943;28;20107;-75
2021/04/11 13:27:37;;;;;;;0.43;0.40;;;19.70;39.20;;;;;;5092859;28;20506;-75
2021/04/11 13:30:12;;;;;;;0.55;0.35;;;19.60;38.80;;;;;;5092808;28;20058;-75
2021/04/11 13:33:01;;;;;;;0.45;0.40;;;19.50;41.60;;;;;;5092757;28;20535;-75
2021/04/11 13:35:36;;;;;;;1.27;0.50;;;19.40;41.80;;;;;;5100008;28;20035;-75
2021/04/11 13:38:24;;;;;;;5.78;0.60;;;19.20;40.80;;;;;;5092755;28;20024;-75
2021/04/11 13:43:57;;;;;;;1.08;0.47;;;18.90;41.00;;;;;;5089326;28;20052;-73
2021/04/11 13:46:50;;;;;;;1.55;0.30;;;19.10;41.30;;;;;;5091837;28;20020;-74
2021/04/11 13:50:03;;;;;;;0.98;0.40;;;18.90;41.00;;;;;;5091972;28;20024;-74
2021/04/11 13:52:53;;;;;;;1.38;0.60;;;18.90;42.20;;;;;;5069330;28;20040;-74
2021/04/11 13:55:24;;;;;;;0.43;0.43;;;18.70;40.00;;;;;;5071843;28;20016;-74